sensor_id;sensor_type;location;lat;lon;timestamp;P1;durP1;ratioP1;P2;durP2;ratioP2
6840;SDS011;3458;53.678;14.080;2024-03-02T00:02:12;85.00;;;37.50;;
6840;SDS011;3458;53.678;14.080;2024-03-02T00:04:39;89.90;;;40.67;;
6840;SDS011;3458;53.678;14.080;2024-03-02T00:07:04;96.43;;;38.80;;
6840;SDS011;3458;53.678;14.080;2024-03-02T00:09:32;83.77;;;37.30;;
6840;SDS011;3458;53.678;14.080;2024-03-02T00:11:58;85.90;;;37.10;;
6840;SDS011;3458;53.678;14.080;2024-03-02T00:14:25;89.13;;;37.30;;
6840;SDS011;3458;53.678;14.080;2024-03-02T00:16:51;85.03;;;38.93;;
6840;SDS011;3458;53.678;14.080;2024-03-02T00:19:17;88.97;;;38.00;;
6840;SDS011;3458;53.678;14.080;2024-03-02T00:21:42;82.30;;;38.97;;
6840;SDS011;3458;53.678;14.080;2024-03-02T00:24:17;87.93;;;37.00;;
6840;SDS011;3458;53.678;14.080;2024-03-02T00:26:47;92.80;;;40.27;;
6840;SDS011;3458;53.678;14.080;2024-03-02T00:29:14;88.17;;;38.87;;
6840;SDS011;3458;53.678;14.080;2024-03-02T00:31:41;90.40;;;39.30;;
6840;SDS011;3458;53.678;14.080;2024-03-02T00:34:07;92.87;;;38.90;;
6840;SDS011;3458;53.678;14.080;2024-03-02T00:36:32;83.43;;;38.10;;
6840;SDS011;3458;53.678;14.080;2024-03-02T00:38:58;88.47;;;38.17;;
6840;SDS011;3458;53.678;14.080;2024-03-02T00:41:27;87.00;;;41.20;;
6840;SDS011;3458;53.678;14.080;2024-03-02T00:44:01;100.90;;;39.50;;
6840;SDS011;3458;53.678;14.080;2024-03-02T00:46:47;90.43;;;41.73;;
6840;SDS011;3458;53.678;14.080;2024-03-02T00:49:23;94.73;;;40.20;;
6840;SDS011;3458;53.678;14.080;2024-03-02T00:51:52;88.83;;;38.20;;
6840;SDS011;3458;53.678;14.080;2024-03-02T00:54:22;84.30;;;38.70;;
6840;SDS011;3458;53.678;14.080;2024-03-02T00:56:50;90.00;;;40.20;;
6840;SDS011;3458;53.678;14.080;2024-03-02T00:59:17;93.23;;;39.93;;
6840;SDS011;3458;53.678;14.080;2024-03-02T01:01:43;104.70;;;44.80;;
6840;SDS011;3458;53.678;14.080;2024-03-02T01:04:09;103.93;;;42.83;;
6840;SDS011;3458;53.678;14.080;2024-03-02T01:06:34;104.10;;;42.57;;
6840;SDS011;3458;53.678;14.080;2024-03-02T01:09:00;111.60;;;43.90;;
6840;SDS011;3458;53.678;14.080;2024-03-02T01:11:27;118.83;;;45.57;;
6840;SDS011;3458;53.678;14.080;2024-03-02T01:13:53;103.77;;;42.17;;
6840;SDS011;3458;53.678;14.080;2024-03-02T01:16:18;90.37;;;41.00;;
6840;SDS011;3458;53.678;14.080;2024-03-02T01:18:44;94.80;;;42.87;;
6840;SDS011;3458;53.678;14.080;2024-03-02T01:21:09;90.13;;;39.40;;
6840;SDS011;3458;53.678;14.080;2024-03-02T01:23:35;92.93;;;39.70;;
6840;SDS011;3458;53.678;14.080;2024-03-02T01:26:00;82.90;;;39.10;;
6840;SDS011;3458;53.678;14.080;2024-03-02T01:28:26;89.67;;;39.10;;
6840;SDS011;3458;53.678;14.080;2024-03-02T01:30:51;76.50;;;37.80;;
6840;SDS011;3458;53.678;14.080;2024-03-02T01:33:17;85.53;;;39.90;;
6840;SDS011;3458;53.678;14.080;2024-03-02T01:35:44;90.90;;;39.80;;
6840;SDS011;3458;53.678;14.080;2024-03-02T01:38:09;92.03;;;41.00;;
6840;SDS011;3458;53.678;14.080;2024-03-02T01:40:35;89.20;;;39.17;;
6840;SDS011;3458;53.678;14.080;2024-03-02T01:43:02;91.60;;;39.00;;
6840;SDS011;3458;53.678;14.080;2024-03-02T01:45:29;88.20;;;39.53;;
6840;SDS011;3458;53.678;14.080;2024-03-02T01:47:54;91.97;;;39.93;;
6840;SDS011;3458;53.678;14.080;2024-03-02T01:52:53;95.10;;;39.97;;
6840;SDS011;3458;53.678;14.080;2024-03-02T01:55:19;95.30;;;40.03;;
6840;SDS011;3458;53.678;14.080;2024-03-02T01:57:44;92.60;;;39.67;;
6840;SDS011;3458;53.678;14.080;2024-03-02T02:00:10;83.40;;;39.47;;
6840;SDS011;3458;53.678;14.080;2024-03-02T02:02:37;102.90;;;41.07;;
6840;SDS011;3458;53.678;14.080;2024-03-02T02:05:02;90.73;;;39.20;;
6840;SDS011;3458;53.678;14.080;2024-03-02T02:07:29;94.97;;;41.33;;
6840;SDS011;3458;53.678;14.080;2024-03-02T02:09:54;102.97;;;39.73;;
6840;SDS011;3458;53.678;14.080;2024-03-02T02:12:19;95.27;;;41.20;;
6840;SDS011;3458;53.678;14.080;2024-03-02T02:14:48;98.97;;;38.80;;
6840;SDS011;3458;53.678;14.080;2024-03-02T02:17:15;92.23;;;42.00;;
6840;SDS011;3458;53.678;14.080;2024-03-02T02:19:41;89.43;;;41.63;;
6840;SDS011;3458;53.678;14.080;2024-03-02T02:22:07;91.57;;;40.47;;
6840;SDS011;3458;53.678;14.080;2024-03-02T02:24:33;95.50;;;41.40;;
6840;SDS011;3458;53.678;14.080;2024-03-02T02:26:58;84.70;;;39.73;;
6840;SDS011;3458;53.678;14.080;2024-03-02T02:29:24;93.60;;;41.97;;
6840;SDS011;3458;53.678;14.080;2024-03-02T02:31:49;89.30;;;41.23;;
6840;SDS011;3458;53.678;14.080;2024-03-02T02:34:15;82.77;;;39.17;;
6840;SDS011;3458;53.678;14.080;2024-03-02T02:36:41;106.23;;;41.67;;
6840;SDS011;3458;53.678;14.080;2024-03-02T02:39:09;96.30;;;44.93;;
6840;SDS011;3458;53.678;14.080;2024-03-02T02:41:43;99.70;;;43.60;;
6840;SDS011;3458;53.678;14.080;2024-03-02T02:44:09;107.20;;;46.43;;
6840;SDS011;3458;53.678;14.080;2024-03-02T02:46:37;96.43;;;45.50;;
6840;SDS011;3458;53.678;14.080;2024-03-02T02:49:03;100.90;;;43.80;;
6840;SDS011;3458;53.678;14.080;2024-03-02T02:51:29;121.27;;;49.07;;
6840;SDS011;3458;53.678;14.080;2024-03-02T02:53:54;106.27;;;46.97;;
6840;SDS011;3458;53.678;14.080;2024-03-02T02:56:20;93.10;;;46.17;;
6840;SDS011;3458;53.678;14.080;2024-03-02T02:58:45;104.70;;;45.43;;
6840;SDS011;3458;53.678;14.080;2024-03-02T03:01:11;108.37;;;47.87;;
6840;SDS011;3458;53.678;14.080;2024-03-02T03:03:36;106.20;;;46.90;;
6840;SDS011;3458;53.678;14.080;2024-03-02T03:06:02;107.60;;;48.13;;
6840;SDS011;3458;53.678;14.080;2024-03-02T03:08:28;128.43;;;49.70;;
6840;SDS011;3458;53.678;14.080;2024-03-02T03:10:53;108.57;;;48.83;;
6840;SDS011;3458;53.678;14.080;2024-03-02T03:13:19;107.33;;;48.03;;
6840;SDS011;3458;53.678;14.080;2024-03-02T03:15:44;106.57;;;48.20;;
6840;SDS011;3458;53.678;14.080;2024-03-02T03:18:10;109.80;;;48.83;;
6840;SDS011;3458;53.678;14.080;2024-03-02T03:20:35;113.13;;;47.73;;
6840;SDS011;3458;53.678;14.080;2024-03-02T03:23:01;101.83;;;46.50;;
6840;SDS011;3458;53.678;14.080;2024-03-02T03:25:28;109.77;;;48.60;;
6840;SDS011;3458;53.678;14.080;2024-03-02T03:27:54;102.30;;;46.50;;
6840;SDS011;3458;53.678;14.080;2024-03-02T03:30:20;100.30;;;48.03;;
6840;SDS011;3458;53.678;14.080;2024-03-02T03:32:45;113.60;;;47.70;;
6840;SDS011;3458;53.678;14.080;2024-03-02T03:35:13;95.10;;;45.60;;
6840;SDS011;3458;53.678;14.080;2024-03-02T03:37:40;104.93;;;46.13;;
6840;SDS011;3458;53.678;14.080;2024-03-02T03:40:06;94.37;;;45.10;;
6840;SDS011;3458;53.678;14.080;2024-03-02T03:42:35;99.80;;;44.90;;
6840;SDS011;3458;53.678;14.080;2024-03-02T03:45:00;103.17;;;47.20;;
6840;SDS011;3458;53.678;14.080;2024-03-02T03:47:26;105.10;;;46.00;;
6840;SDS011;3458;53.678;14.080;2024-03-02T03:49:51;95.97;;;46.03;;
6840;SDS011;3458;53.678;14.080;2024-03-02T03:52:17;106.90;;;44.33;;
6840;SDS011;3458;53.678;14.080;2024-03-02T03:54:42;96.23;;;42.73;;
6840;SDS011;3458;53.678;14.080;2024-03-02T03:57:09;98.60;;;44.53;;
6840;SDS011;3458;53.678;14.080;2024-03-02T03:59:35;96.03;;;42.90;;
6840;SDS011;3458;53.678;14.080;2024-03-02T04:02:02;91.10;;;39.87;;
6840;SDS011;3458;53.678;14.080;2024-03-02T04:04:28;91.50;;;41.60;;
6840;SDS011;3458;53.678;14.080;2024-03-02T04:06:53;91.50;;;42.33;;
6840;SDS011;3458;53.678;14.080;2024-03-02T04:09:19;89.67;;;42.87;;
6840;SDS011;3458;53.678;14.080;2024-03-02T04:11:44;90.60;;;39.70;;
6840;SDS011;3458;53.678;14.080;2024-03-02T04:14:10;94.63;;;40.00;;
6840;SDS011;3458;53.678;14.080;2024-03-02T04:16:37;79.43;;;38.47;;
6840;SDS011;3458;53.678;14.080;2024-03-02T04:19:03;90.43;;;42.87;;
6840;SDS011;3458;53.678;14.080;2024-03-02T04:21:28;82.27;;;40.93;;
6840;SDS011;3458;53.678;14.080;2024-03-02T04:23:54;84.90;;;39.90;;
6840;SDS011;3458;53.678;14.080;2024-03-02T04:26:23;88.30;;;40.60;;
6840;SDS011;3458;53.678;14.080;2024-03-02T04:28:50;82.53;;;40.37;;
6840;SDS011;3458;53.678;14.080;2024-03-02T04:31:16;81.80;;;39.33;;
6840;SDS011;3458;53.678;14.080;2024-03-02T04:33:41;80.67;;;38.27;;
6840;SDS011;3458;53.678;14.080;2024-03-02T04:36:07;87.13;;;41.50;;
6840;SDS011;3458;53.678;14.080;2024-03-02T04:38:34;79.40;;;37.37;;
6840;SDS011;3458;53.678;14.080;2024-03-02T04:41:00;71.97;;;34.90;;
6840;SDS011;3458;53.678;14.080;2024-03-02T04:43:25;84.37;;;38.27;;
6840;SDS011;3458;53.678;14.080;2024-03-02T04:45:51;89.07;;;38.67;;
6840;SDS011;3458;53.678;14.080;2024-03-02T04:48:16;76.80;;;39.10;;
6840;SDS011;3458;53.678;14.080;2024-03-02T04:50:42;78.23;;;38.50;;
6840;SDS011;3458;53.678;14.080;2024-03-02T04:53:07;76.07;;;38.00;;
6840;SDS011;3458;53.678;14.080;2024-03-02T04:55:33;77.97;;;39.00;;
6840;SDS011;3458;53.678;14.080;2024-03-02T04:58:04;75.97;;;36.43;;
6840;SDS011;3458;53.678;14.080;2024-03-02T05:00:30;85.73;;;39.83;;
6840;SDS011;3458;53.678;14.080;2024-03-02T05:02:55;79.27;;;37.23;;
6840;SDS011;3458;53.678;14.080;2024-03-02T05:05:21;75.73;;;36.77;;
6840;SDS011;3458;53.678;14.080;2024-03-02T05:07:46;80.70;;;38.83;;
6840;SDS011;3458;53.678;14.080;2024-03-02T05:10:12;81.27;;;40.37;;
6840;SDS011;3458;53.678;14.080;2024-03-02T05:12:37;78.23;;;38.47;;
6840;SDS011;3458;53.678;14.080;2024-03-02T05:15:09;85.47;;;37.67;;
6840;SDS011;3458;53.678;14.080;2024-03-02T05:17:36;85.40;;;37.90;;
6840;SDS011;3458;53.678;14.080;2024-03-02T05:20:03;71.33;;;37.50;;
6840;SDS011;3458;53.678;14.080;2024-03-02T05:22:29;78.23;;;38.13;;
6840;SDS011;3458;53.678;14.080;2024-03-02T05:24:54;77.03;;;37.70;;
6840;SDS011;3458;53.678;14.080;2024-03-02T05:27:20;79.53;;;37.77;;
6840;SDS011;3458;53.678;14.080;2024-03-02T05:29:45;77.33;;;37.83;;
6840;SDS011;3458;53.678;14.080;2024-03-02T05:32:12;77.67;;;38.00;;
6840;SDS011;3458;53.678;14.080;2024-03-02T05:34:37;85.13;;;39.27;;
6840;SDS011;3458;53.678;14.080;2024-03-02T05:37:03;82.60;;;38.37;;
6840;SDS011;3458;53.678;14.080;2024-03-02T05:39:28;73.87;;;35.70;;
6840;SDS011;3458;53.678;14.080;2024-03-02T05:41:54;81.10;;;36.80;;
6840;SDS011;3458;53.678;14.080;2024-03-02T05:44:19;85.50;;;38.13;;
6840;SDS011;3458;53.678;14.080;2024-03-02T05:46:45;81.90;;;36.77;;
6840;SDS011;3458;53.678;14.080;2024-03-02T05:49:11;73.73;;;35.83;;
6840;SDS011;3458;53.678;14.080;2024-03-02T05:51:36;72.10;;;36.60;;
6840;SDS011;3458;53.678;14.080;2024-03-02T05:54:02;76.63;;;37.03;;
6840;SDS011;3458;53.678;14.080;2024-03-02T05:56:27;74.37;;;37.87;;
6840;SDS011;3458;53.678;14.080;2024-03-02T05:58:53;78.03;;;36.87;;
6840;SDS011;3458;53.678;14.080;2024-03-02T06:01:41;67.80;;;37.03;;
6840;SDS011;3458;53.678;14.080;2024-03-02T06:04:08;68.67;;;36.43;;
6840;SDS011;3458;53.678;14.080;2024-03-02T06:06:34;78.70;;;36.20;;
6840;SDS011;3458;53.678;14.080;2024-03-02T06:09:00;71.77;;;36.33;;
6840;SDS011;3458;53.678;14.080;2024-03-02T06:11:27;72.23;;;36.20;;
6840;SDS011;3458;53.678;14.080;2024-03-02T06:13:53;71.57;;;36.20;;
6840;SDS011;3458;53.678;14.080;2024-03-02T06:16:18;75.67;;;35.30;;
6840;SDS011;3458;53.678;14.080;2024-03-02T06:18:44;71.63;;;33.93;;
6840;SDS011;3458;53.678;14.080;2024-03-02T06:21:09;79.60;;;34.33;;
6840;SDS011;3458;53.678;14.080;2024-03-02T06:23:35;66.13;;;34.67;;
6840;SDS011;3458;53.678;14.080;2024-03-02T06:26:00;68.30;;;32.43;;
6840;SDS011;3458;53.678;14.080;2024-03-02T06:28:27;66.50;;;33.60;;
6840;SDS011;3458;53.678;14.080;2024-03-02T06:30:53;64.00;;;33.80;;
6840;SDS011;3458;53.678;14.080;2024-03-02T06:33:19;66.00;;;32.37;;
6840;SDS011;3458;53.678;14.080;2024-03-02T06:35:44;66.20;;;32.20;;
6840;SDS011;3458;53.678;14.080;2024-03-02T06:38:09;65.10;;;31.50;;
6840;SDS011;3458;53.678;14.080;2024-03-02T06:40:35;58.87;;;32.70;;
6840;SDS011;3458;53.678;14.080;2024-03-02T06:43:03;58.80;;;32.03;;
6840;SDS011;3458;53.678;14.080;2024-03-02T06:45:29;65.00;;;32.47;;
6840;SDS011;3458;53.678;14.080;2024-03-02T06:47:55;62.90;;;31.80;;
6840;SDS011;3458;53.678;14.080;2024-03-02T06:50:21;62.53;;;29.93;;
6840;SDS011;3458;53.678;14.080;2024-03-02T06:52:47;63.07;;;31.40;;
6840;SDS011;3458;53.678;14.080;2024-03-02T06:55:12;66.50;;;32.23;;
6840;SDS011;3458;53.678;14.080;2024-03-02T06:57:38;61.30;;;33.00;;
6840;SDS011;3458;53.678;14.080;2024-03-02T07:00:03;63.97;;;34.07;;
6840;SDS011;3458;53.678;14.080;2024-03-02T07:02:30;70.30;;;33.80;;
6840;SDS011;3458;53.678;14.080;2024-03-02T07:04:56;68.33;;;34.37;;
6840;SDS011;3458;53.678;14.080;2024-03-02T07:07:21;72.73;;;35.53;;
6840;SDS011;3458;53.678;14.080;2024-03-02T07:09:46;72.73;;;33.47;;
6840;SDS011;3458;53.678;14.080;2024-03-02T07:12:13;61.50;;;33.30;;
6840;SDS011;3458;53.678;14.080;2024-03-02T07:14:38;70.53;;;34.30;;
6840;SDS011;3458;53.678;14.080;2024-03-02T07:17:22;69.60;;;35.17;;
6840;SDS011;3458;53.678;14.080;2024-03-02T07:19:48;73.10;;;36.50;;
6840;SDS011;3458;53.678;14.080;2024-03-02T07:22:13;72.80;;;36.73;;
6840;SDS011;3458;53.678;14.080;2024-03-02T07:24:39;70.63;;;37.90;;
6840;SDS011;3458;53.678;14.080;2024-03-02T07:27:06;79.53;;;36.70;;
6840;SDS011;3458;53.678;14.080;2024-03-02T07:29:32;73.97;;;36.80;;
6840;SDS011;3458;53.678;14.080;2024-03-02T07:31:58;89.67;;;38.47;;
6840;SDS011;3458;53.678;14.080;2024-03-02T07:34:24;80.63;;;35.87;;
6840;SDS011;3458;53.678;14.080;2024-03-02T07:36:49;76.83;;;35.87;;
6840;SDS011;3458;53.678;14.080;2024-03-02T07:39:15;69.90;;;36.20;;
6840;SDS011;3458;53.678;14.080;2024-03-02T07:41:41;77.53;;;37.83;;
6840;SDS011;3458;53.678;14.080;2024-03-02T07:44:06;77.57;;;37.90;;
6840;SDS011;3458;53.678;14.080;2024-03-02T07:46:32;84.90;;;39.73;;
6840;SDS011;3458;53.678;14.080;2024-03-02T07:48:57;81.50;;;37.30;;
6840;SDS011;3458;53.678;14.080;2024-03-02T07:51:23;88.27;;;39.63;;
6840;SDS011;3458;53.678;14.080;2024-03-02T07:53:48;74.33;;;37.10;;
6840;SDS011;3458;53.678;14.080;2024-03-02T07:56:14;80.10;;;38.30;;
6840;SDS011;3458;53.678;14.080;2024-03-02T07:58:46;79.23;;;39.63;;
6840;SDS011;3458;53.678;14.080;2024-03-02T08:01:13;77.67;;;38.17;;
6840;SDS011;3458;53.678;14.080;2024-03-02T08:03:38;75.63;;;40.57;;
6840;SDS011;3458;53.678;14.080;2024-03-02T08:06:04;77.00;;;39.83;;
6840;SDS011;3458;53.678;14.080;2024-03-02T08:08:29;89.33;;;41.50;;
6840;SDS011;3458;53.678;14.080;2024-03-02T08:10:55;92.83;;;38.60;;
6840;SDS011;3458;53.678;14.080;2024-03-02T08:13:20;79.90;;;39.53;;
6840;SDS011;3458;53.678;14.080;2024-03-02T08:15:46;84.30;;;41.47;;
6840;SDS011;3458;53.678;14.080;2024-03-02T08:18:11;83.50;;;38.33;;
6840;SDS011;3458;53.678;14.080;2024-03-02T08:20:37;90.03;;;42.53;;
6840;SDS011;3458;53.678;14.080;2024-03-02T08:23:03;91.10;;;41.40;;
6840;SDS011;3458;53.678;14.080;2024-03-02T08:25:29;93.10;;;41.40;;
6840;SDS011;3458;53.678;14.080;2024-03-02T08:27:55;89.23;;;41.20;;
6840;SDS011;3458;53.678;14.080;2024-03-02T08:30:21;83.00;;;40.27;;
6840;SDS011;3458;53.678;14.080;2024-03-02T08:32:47;85.43;;;40.97;;
6840;SDS011;3458;53.678;14.080;2024-03-02T08:35:13;91.87;;;42.50;;
6840;SDS011;3458;53.678;14.080;2024-03-02T08:37:39;88.27;;;39.20;;
6840;SDS011;3458;53.678;14.080;2024-03-02T08:40:07;90.73;;;43.03;;
6840;SDS011;3458;53.678;14.080;2024-03-02T08:42:33;85.33;;;38.73;;
6840;SDS011;3458;53.678;14.080;2024-03-02T08:44:58;87.70;;;40.63;;
6840;SDS011;3458;53.678;14.080;2024-03-02T08:47:25;78.30;;;36.90;;
6840;SDS011;3458;53.678;14.080;2024-03-02T08:49:51;88.60;;;37.80;;
6840;SDS011;3458;53.678;14.080;2024-03-02T08:52:17;86.20;;;39.67;;
6840;SDS011;3458;53.678;14.080;2024-03-02T08:54:43;79.53;;;38.17;;
6840;SDS011;3458;53.678;14.080;2024-03-02T08:57:08;79.33;;;39.10;;
6840;SDS011;3458;53.678;14.080;2024-03-02T08:59:34;77.57;;;39.57;;
6840;SDS011;3458;53.678;14.080;2024-03-02T09:01:59;92.53;;;40.87;;
6840;SDS011;3458;53.678;14.080;2024-03-02T09:04:25;85.57;;;40.60;;
6840;SDS011;3458;53.678;14.080;2024-03-02T09:06:50;85.73;;;38.90;;
6840;SDS011;3458;53.678;14.080;2024-03-02T09:09:16;83.90;;;40.30;;
6840;SDS011;3458;53.678;14.080;2024-03-02T09:11:41;87.50;;;39.90;;
6840;SDS011;3458;53.678;14.080;2024-03-02T09:14:07;90.43;;;41.40;;
6840;SDS011;3458;53.678;14.080;2024-03-02T09:16:32;91.77;;;41.27;;
6840;SDS011;3458;53.678;14.080;2024-03-02T09:18:58;86.57;;;39.37;;
6840;SDS011;3458;53.678;14.080;2024-03-02T09:21:23;180.73;;;89.53;;
6840;SDS011;3458;53.678;14.080;2024-03-02T09:23:50;234.00;;;103.77;;
6840;SDS011;3458;53.678;14.080;2024-03-02T09:26:15;93.30;;;43.40;;
6840;SDS011;3458;53.678;14.080;2024-03-02T09:28:44;86.60;;;41.53;;
6840;SDS011;3458;53.678;14.080;2024-03-02T09:31:10;80.07;;;41.53;;
6840;SDS011;3458;53.678;14.080;2024-03-02T09:33:36;95.97;;;41.23;;
6840;SDS011;3458;53.678;14.080;2024-03-02T09:36:04;78.60;;;40.07;;
6840;SDS011;3458;53.678;14.080;2024-03-02T09:38:31;101.47;;;44.37;;
6840;SDS011;3458;53.678;14.080;2024-03-02T09:40:58;92.67;;;42.50;;
6840;SDS011;3458;53.678;14.080;2024-03-02T09:43:24;100.07;;;44.43;;
6840;SDS011;3458;53.678;14.080;2024-03-02T09:45:50;94.77;;;43.40;;
6840;SDS011;3458;53.678;14.080;2024-03-02T09:48:16;107.57;;;45.57;;
6840;SDS011;3458;53.678;14.080;2024-03-02T09:50:43;98.07;;;45.20;;
6840;SDS011;3458;53.678;14.080;2024-03-02T09:53:09;99.80;;;44.17;;
6840;SDS011;3458;53.678;14.080;2024-03-02T09:55:36;98.93;;;44.40;;
6840;SDS011;3458;53.678;14.080;2024-03-02T09:58:02;86.70;;;42.30;;
6840;SDS011;3458;53.678;14.080;2024-03-02T10:00:28;102.03;;;46.93;;
6840;SDS011;3458;53.678;14.080;2024-03-02T10:02:53;105.73;;;46.30;;
6840;SDS011;3458;53.678;14.080;2024-03-02T10:05:23;108.03;;;44.10;;
6840;SDS011;3458;53.678;14.080;2024-03-02T10:08:00;92.53;;;46.47;;
6840;SDS011;3458;53.678;14.080;2024-03-02T10:10:34;99.20;;;46.63;;
6840;SDS011;3458;53.678;14.080;2024-03-02T10:13:04;103.33;;;44.00;;
6840;SDS011;3458;53.678;14.080;2024-03-02T10:15:31;95.63;;;42.90;;
6840;SDS011;3458;53.678;14.080;2024-03-02T10:17:56;95.70;;;41.70;;
6840;SDS011;3458;53.678;14.080;2024-03-02T10:20:23;91.77;;;44.77;;
6840;SDS011;3458;53.678;14.080;2024-03-02T10:22:55;87.47;;;42.43;;
6840;SDS011;3458;53.678;14.080;2024-03-02T10:25:34;86.23;;;43.10;;
6840;SDS011;3458;53.678;14.080;2024-03-02T10:28:00;87.47;;;43.07;;
6840;SDS011;3458;53.678;14.080;2024-03-02T10:30:26;90.07;;;41.17;;
6840;SDS011;3458;53.678;14.080;2024-03-02T10:32:52;84.57;;;40.97;;
6840;SDS011;3458;53.678;14.080;2024-03-02T10:35:19;86.83;;;41.57;;
6840;SDS011;3458;53.678;14.080;2024-03-02T10:37:46;199.60;;;97.13;;
6840;SDS011;3458;53.678;14.080;2024-03-02T10:40:13;90.83;;;46.90;;
6840;SDS011;3458;53.678;14.080;2024-03-02T10:42:39;82.13;;;41.00;;
6840;SDS011;3458;53.678;14.080;2024-03-02T10:45:07;89.50;;;41.30;;
6840;SDS011;3458;53.678;14.080;2024-03-02T10:47:37;88.10;;;43.50;;
6840;SDS011;3458;53.678;14.080;2024-03-02T10:50:04;88.10;;;41.63;;
6840;SDS011;3458;53.678;14.080;2024-03-02T10:52:36;93.53;;;41.60;;
6840;SDS011;3458;53.678;14.080;2024-03-02T10:55:02;84.30;;;40.93;;
6840;SDS011;3458;53.678;14.080;2024-03-02T10:57:32;90.00;;;41.07;;
6840;SDS011;3458;53.678;14.080;2024-03-02T11:00:04;84.10;;;39.67;;
6840;SDS011;3458;53.678;14.080;2024-03-02T11:02:32;91.47;;;40.60;;
6840;SDS011;3458;53.678;14.080;2024-03-02T11:05:01;92.97;;;43.23;;
6840;SDS011;3458;53.678;14.080;2024-03-02T11:07:34;85.00;;;41.80;;
6840;SDS011;3458;53.678;14.080;2024-03-02T11:10:02;88.90;;;41.07;;
6840;SDS011;3458;53.678;14.080;2024-03-02T11:12:38;80.67;;;41.03;;
6840;SDS011;3458;53.678;14.080;2024-03-02T11:15:11;75.30;;;40.23;;
6840;SDS011;3458;53.678;14.080;2024-03-02T11:17:42;162.87;;;83.07;;
6840;SDS011;3458;53.678;14.080;2024-03-02T11:20:08;88.50;;;44.37;;
6840;SDS011;3458;53.678;14.080;2024-03-02T11:22:53;71.43;;;38.00;;
6840;SDS011;3458;53.678;14.080;2024-03-02T11:25:23;86.33;;;38.37;;
6840;SDS011;3458;53.678;14.080;2024-03-02T11:32:59;75.27;;;38.03;;
6840;SDS011;3458;53.678;14.080;2024-03-02T11:35:37;73.13;;;37.03;;
6840;SDS011;3458;53.678;14.080;2024-03-02T11:38:24;77.00;;;37.37;;
6840;SDS011;3458;53.678;14.080;2024-03-02T11:41:08;78.53;;;36.20;;
6840;SDS011;3458;53.678;14.080;2024-03-02T11:43:43;77.10;;;38.80;;
6840;SDS011;3458;53.678;14.080;2024-03-02T11:46:12;69.13;;;34.10;;
6840;SDS011;3458;53.678;14.080;2024-03-02T11:48:40;74.50;;;35.60;;
6840;SDS011;3458;53.678;14.080;2024-03-02T11:51:08;69.97;;;35.87;;
6840;SDS011;3458;53.678;14.080;2024-03-02T11:53:34;76.90;;;34.00;;
6840;SDS011;3458;53.678;14.080;2024-03-02T11:56:12;73.37;;;34.33;;
6840;SDS011;3458;53.678;14.080;2024-03-02T11:58:53;69.37;;;31.97;;
6840;SDS011;3458;53.678;14.080;2024-03-02T12:01:29;70.40;;;35.00;;
6840;SDS011;3458;53.678;14.080;2024-03-02T12:04:15;62.90;;;31.83;;
6840;SDS011;3458;53.678;14.080;2024-03-02T12:06:46;60.60;;;32.40;;
6840;SDS011;3458;53.678;14.080;2024-03-02T12:09:27;72.67;;;33.37;;
6840;SDS011;3458;53.678;14.080;2024-03-02T12:12:10;65.10;;;33.33;;
6840;SDS011;3458;53.678;14.080;2024-03-02T12:14:37;59.23;;;31.03;;
6840;SDS011;3458;53.678;14.080;2024-03-02T12:17:04;60.70;;;30.57;;
6840;SDS011;3458;53.678;14.080;2024-03-02T12:19:30;49.10;;;27.60;;
6840;SDS011;3458;53.678;14.080;2024-03-02T12:21:58;53.57;;;28.23;;
6840;SDS011;3458;53.678;14.080;2024-03-02T12:24:30;51.93;;;26.73;;
6840;SDS011;3458;53.678;14.080;2024-03-02T12:26:56;47.37;;;26.53;;
6840;SDS011;3458;53.678;14.080;2024-03-02T12:29:22;47.47;;;24.63;;
6840;SDS011;3458;53.678;14.080;2024-03-02T12:31:52;43.20;;;24.13;;
6840;SDS011;3458;53.678;14.080;2024-03-02T12:34:29;43.47;;;24.00;;
6840;SDS011;3458;53.678;14.080;2024-03-02T12:37:05;49.83;;;26.23;;
6840;SDS011;3458;53.678;14.080;2024-03-02T12:39:30;47.37;;;26.10;;
6840;SDS011;3458;53.678;14.080;2024-03-02T12:41:57;50.47;;;24.70;;
6840;SDS011;3458;53.678;14.080;2024-03-02T12:44:23;41.40;;;24.73;;
6840;SDS011;3458;53.678;14.080;2024-03-02T12:46:49;38.60;;;22.60;;
6840;SDS011;3458;53.678;14.080;2024-03-02T12:49:14;45.97;;;25.07;;
6840;SDS011;3458;53.678;14.080;2024-03-02T12:51:43;38.27;;;22.30;;
6840;SDS011;3458;53.678;14.080;2024-03-02T12:54:11;38.00;;;23.80;;
6840;SDS011;3458;53.678;14.080;2024-03-02T12:56:37;37.40;;;23.20;;
6840;SDS011;3458;53.678;14.080;2024-03-02T12:59:03;63.40;;;34.23;;
6840;SDS011;3458;53.678;14.080;2024-03-02T13:01:30;38.97;;;22.83;;
6840;SDS011;3458;53.678;14.080;2024-03-02T13:03:57;35.10;;;20.67;;
6840;SDS011;3458;53.678;14.080;2024-03-02T13:06:23;43.83;;;25.10;;
6840;SDS011;3458;53.678;14.080;2024-03-02T13:08:52;46.40;;;25.60;;
6840;SDS011;3458;53.678;14.080;2024-03-02T13:11:18;42.40;;;25.80;;
6840;SDS011;3458;53.678;14.080;2024-03-02T13:13:44;40.20;;;24.60;;
6840;SDS011;3458;53.678;14.080;2024-03-02T13:16:10;37.97;;;23.03;;
6840;SDS011;3458;53.678;14.080;2024-03-02T13:18:36;42.20;;;25.23;;
6840;SDS011;3458;53.678;14.080;2024-03-02T13:21:03;38.30;;;24.87;;
6840;SDS011;3458;53.678;14.080;2024-03-02T13:23:29;50.37;;;26.57;;
6840;SDS011;3458;53.678;14.080;2024-03-02T13:25:56;43.10;;;25.27;;
6840;SDS011;3458;53.678;14.080;2024-03-02T13:28:23;42.97;;;25.70;;
6840;SDS011;3458;53.678;14.080;2024-03-02T13:30:49;40.47;;;23.47;;
6840;SDS011;3458;53.678;14.080;2024-03-02T13:33:14;50.83;;;26.03;;
6840;SDS011;3458;53.678;14.080;2024-03-02T13:35:40;47.63;;;26.60;;
6840;SDS011;3458;53.678;14.080;2024-03-02T13:38:05;48.23;;;26.13;;
6840;SDS011;3458;53.678;14.080;2024-03-02T13:40:31;46.50;;;25.00;;
6840;SDS011;3458;53.678;14.080;2024-03-02T13:43:00;37.60;;;23.67;;
6840;SDS011;3458;53.678;14.080;2024-03-02T13:45:27;38.27;;;24.20;;
6840;SDS011;3458;53.678;14.080;2024-03-02T13:47:52;41.30;;;22.90;;
6840;SDS011;3458;53.678;14.080;2024-03-02T13:50:18;44.80;;;24.60;;
6840;SDS011;3458;53.678;14.080;2024-03-02T13:52:44;35.83;;;22.17;;
6840;SDS011;3458;53.678;14.080;2024-03-02T13:55:10;35.63;;;20.83;;
6840;SDS011;3458;53.678;14.080;2024-03-02T13:57:36;64.63;;;39.33;;
6840;SDS011;3458;53.678;14.080;2024-03-02T14:00:01;178.73;;;89.93;;
6840;SDS011;3458;53.678;14.080;2024-03-02T14:02:28;40.93;;;24.90;;
6840;SDS011;3458;53.678;14.080;2024-03-02T14:04:54;39.70;;;22.20;;
6840;SDS011;3458;53.678;14.080;2024-03-02T14:07:19;42.00;;;23.73;;
6840;SDS011;3458;53.678;14.080;2024-03-02T14:09:45;43.80;;;24.33;;
6840;SDS011;3458;53.678;14.080;2024-03-02T14:12:11;37.37;;;23.40;;
6840;SDS011;3458;53.678;14.080;2024-03-02T14:14:38;38.60;;;24.10;;
6840;SDS011;3458;53.678;14.080;2024-03-02T14:17:04;43.53;;;26.13;;
6840;SDS011;3458;53.678;14.080;2024-03-02T14:19:31;45.40;;;27.03;;
6840;SDS011;3458;53.678;14.080;2024-03-02T14:21:57;42.63;;;24.07;;
6840;SDS011;3458;53.678;14.080;2024-03-02T14:24:22;146.20;;;77.70;;
6840;SDS011;3458;53.678;14.080;2024-03-02T14:26:50;45.67;;;25.53;;
6840;SDS011;3458;53.678;14.080;2024-03-02T14:29:19;38.10;;;23.37;;
6840;SDS011;3458;53.678;14.080;2024-03-02T14:31:45;46.40;;;24.60;;
6840;SDS011;3458;53.678;14.080;2024-03-02T14:34:13;43.40;;;22.93;;
6840;SDS011;3458;53.678;14.080;2024-03-02T14:36:39;40.07;;;20.57;;
6840;SDS011;3458;53.678;14.080;2024-03-02T14:39:07;34.63;;;22.50;;
6840;SDS011;3458;53.678;14.080;2024-03-02T14:41:35;34.83;;;21.80;;